sensor_id;sensor_type;location;lat;lon;timestamp;temperature;humidity
34201;DHT22;20469;55.638;37.670;2023-03-01T00:02:18;-3.60;1.00
34201;DHT22;20469;55.638;37.670;2023-03-01T00:04:45;-3.60;1.00
34201;DHT22;20469;55.638;37.670;2023-03-01T00:07:12;-3.60;1.00
34201;DHT22;20469;55.638;37.670;2023-03-01T00:09:40;-3.80;1.00
34201;DHT22;20469;55.638;37.670;2023-03-01T00:12:07;-3.80;1.00
34201;DHT22;20469;55.638;37.670;2023-03-01T00:14:35;-3.70;1.00
34201;DHT22;20469;55.638;37.670;2023-03-01T00:19:30;-3.80;1.00
34201;DHT22;20469;55.638;37.670;2023-03-01T00:24:26;-3.70;1.00
34201;DHT22;20469;55.638;37.670;2023-03-01T00:26:54;-3.80;1.00
34201;DHT22;20469;55.638;37.670;2023-03-01T00:29:24;-3.60;1.00
34201;DHT22;20469;55.638;37.670;2023-03-01T00:31:51;-3.50;1.00
34201;DHT22;20469;55.638;37.670;2023-03-01T00:34:19;-3.70;1.00
34201;DHT22;20469;55.638;37.670;2023-03-01T00:36:46;-3.70;1.00
34201;DHT22;20469;55.638;37.670;2023-03-01T00:39:14;-3.70;1.00
34201;DHT22;20469;55.638;37.670;2023-03-01T00:41:42;-3.70;1.00
34201;DHT22;20469;55.638;37.670;2023-03-01T00:44:10;-3.90;1.00
34201;DHT22;20469;55.638;37.670;2023-03-01T00:46:38;-3.60;1.00
34201;DHT22;20469;55.638;37.670;2023-03-01T00:49:05;-3.70;1.00
34201;DHT22;20469;55.638;37.670;2023-03-01T00:51:33;-3.70;1.00
34201;DHT22;20469;55.638;37.670;2023-03-01T00:54:01;-3.90;1.00
34201;DHT22;20469;55.638;37.670;2023-03-01T00:56:29;-3.80;1.00
34201;DHT22;20469;55.638;37.670;2023-03-01T00:58:57;-4.00;1.00
34201;DHT22;20469;55.638;37.670;2023-03-01T01:01:27;-3.80;1.00
34201;DHT22;20469;55.638;37.670;2023-03-01T01:04:06;-3.70;1.00
34201;DHT22;20469;55.638;37.670;2023-03-01T01:06:36;-3.80;1.00
34201;DHT22;20469;55.638;37.670;2023-03-01T01:09:06;-3.80;1.00
34201;DHT22;20469;55.638;37.670;2023-03-01T01:11:34;-3.90;1.00
34201;DHT22;20469;55.638;37.670;2023-03-01T01:14:03;-3.90;1.00
34201;DHT22;20469;55.638;37.670;2023-03-01T01:16:30;-4.00;1.00
34201;DHT22;20469;55.638;37.670;2023-03-01T01:18:58;-3.80;1.00
34201;DHT22;20469;55.638;37.670;2023-03-01T01:21:26;-3.70;1.00
34201;DHT22;20469;55.638;37.670;2023-03-01T01:23:54;-3.80;1.00
34201;DHT22;20469;55.638;37.670;2023-03-01T01:26:25;-3.80;1.00
34201;DHT22;20469;55.638;37.670;2023-03-01T01:28:53;-3.90;1.00
34201;DHT22;20469;55.638;37.670;2023-03-01T01:31:21;-3.90;1.00
34201;DHT22;20469;55.638;37.670;2023-03-01T01:33:51;-3.90;1.00
34201;DHT22;20469;55.638;37.670;2023-03-01T01:36:19;-3.90;1.00
34201;DHT22;20469;55.638;37.670;2023-03-01T01:38:47;-3.90;1.00
34201;DHT22;20469;55.638;37.670;2023-03-01T01:41:15;-4.00;1.00
34201;DHT22;20469;55.638;37.670;2023-03-01T01:43:45;-4.00;1.00
34201;DHT22;20469;55.638;37.670;2023-03-01T01:51:45;-4.10;1.00
34201;DHT22;20469;55.638;37.670;2023-03-01T01:54:19;-4.20;1.00
34201;DHT22;20469;55.638;37.670;2023-03-01T01:56:54;-4.20;1.00
34201;DHT22;20469;55.638;37.670;2023-03-01T01:59:23;-4.10;1.00
34201;DHT22;20469;55.638;37.670;2023-03-01T02:01:52;-4.20;1.00
34201;DHT22;20469;55.638;37.670;2023-03-01T02:04:21;-4.30;1.00
34201;DHT22;20469;55.638;37.670;2023-03-01T02:06:53;-4.20;1.00
34201;DHT22;20469;55.638;37.670;2023-03-01T02:09:24;-4.20;1.00
34201;DHT22;20469;55.638;37.670;2023-03-01T02:11:52;-4.30;1.00
34201;DHT22;20469;55.638;37.670;2023-03-01T02:14:20;-4.30;1.00
34201;DHT22;20469;55.638;37.670;2023-03-01T02:16:47;-4.30;1.00
34201;DHT22;20469;55.638;37.670;2023-03-01T02:22:36;-4.30;1.00
34201;DHT22;20469;55.638;37.670;2023-03-01T02:30:41;-4.40;1.00
34201;DHT22;20469;55.638;37.670;2023-03-01T02:33:31;-4.40;1.00
34201;DHT22;20469;55.638;37.670;2023-03-01T02:36:03;-4.30;1.00
34201;DHT22;20469;55.638;37.670;2023-03-01T02:38:32;-4.40;1.00
34201;DHT22;20469;55.638;37.670;2023-03-01T02:41:00;-4.50;1.00
34201;DHT22;20469;55.638;37.670;2023-03-01T02:43:31;-4.60;1.00
34201;DHT22;20469;55.638;37.670;2023-03-01T02:46:04;-4.50;1.00
34201;DHT22;20469;55.638;37.670;2023-03-01T02:49:01;-4.60;1.00
34201;DHT22;20469;55.638;37.670;2023-03-01T02:54:48;-4.60;1.00
34201;DHT22;20469;55.638;37.670;2023-03-01T02:56:55;-4.60;1.00
34201;DHT22;20469;55.638;37.670;2023-03-01T02:59:26;-4.70;1.00
34201;DHT22;20469;55.638;37.670;2023-03-01T03:01:54;-4.70;1.00
34201;DHT22;20469;55.638;37.670;2023-03-01T03:04:21;-0.90;1.00
34201;DHT22;20469;55.638;37.670;2023-03-01T03:06:50;-4.70;1.00
34201;DHT22;20469;55.638;37.670;2023-03-01T03:09:20;-4.80;1.00
34201;DHT22;20469;55.638;37.670;2023-03-01T03:11:48;-4.80;1.00
34201;DHT22;20469;55.638;37.670;2023-03-01T03:14:16;-4.80;1.00
34201;DHT22;20469;55.638;37.670;2023-03-01T03:16:46;-4.80;1.00
34201;DHT22;20469;55.638;37.670;2023-03-01T03:19:14;-4.80;1.00
34201;DHT22;20469;55.638;37.670;2023-03-01T03:24:09;-4.90;1.00
34201;DHT22;20469;55.638;37.670;2023-03-01T03:26:36;-5.00;1.00
34201;DHT22;20469;55.638;37.670;2023-03-01T03:29:04;-4.90;1.00
34201;DHT22;20469;55.638;37.670;2023-03-01T03:31:31;-4.90;1.00
34201;DHT22;20469;55.638;37.670;2023-03-01T03:33:58;-4.80;1.00
34201;DHT22;20469;55.638;37.670;2023-03-01T03:38:53;-5.00;1.00
34201;DHT22;20469;55.638;37.670;2023-03-01T03:41:20;-5.00;1.00
34201;DHT22;20469;55.638;37.670;2023-03-01T03:43:47;-4.90;1.00
34201;DHT22;20469;55.638;37.670;2023-03-01T03:46:15;-4.90;1.00
34201;DHT22;20469;55.638;37.670;2023-03-01T03:48:44;-5.00;1.00
34201;DHT22;20469;55.638;37.670;2023-03-01T03:51:16;-5.00;1.00
34201;DHT22;20469;55.638;37.670;2023-03-01T03:53:44;-5.00;1.00
34201;DHT22;20469;55.638;37.670;2023-03-01T03:56:11;-5.10;1.00
34201;DHT22;20469;55.638;37.670;2023-03-01T03:58:39;-5.00;1.00
34201;DHT22;20469;55.638;37.670;2023-03-01T04:01:06;-5.00;1.00
34201;DHT22;20469;55.638;37.670;2023-03-01T04:03:33;-5.10;1.00
34201;DHT22;20469;55.638;37.670;2023-03-01T04:06:02;-5.10;1.00
34201;DHT22;20469;55.638;37.670;2023-03-01T04:08:31;-4.40;1.00
34201;DHT22;20469;55.638;37.670;2023-03-01T04:11:03;-5.20;1.00
34201;DHT22;20469;55.638;37.670;2023-03-01T04:13:52;-5.20;1.00
34201;DHT22;20469;55.638;37.670;2023-03-01T04:16:20;-5.20;1.00
34201;DHT22;20469;55.638;37.670;2023-03-01T04:18:47;-5.20;1.00
34201;DHT22;20469;55.638;37.670;2023-03-01T04:21:15;-5.20;1.00
34201;DHT22;20469;55.638;37.670;2023-03-01T04:23:42;-5.20;1.00
34201;DHT22;20469;55.638;37.670;2023-03-01T04:26:09;-5.20;1.00
34201;DHT22;20469;55.638;37.670;2023-03-01T04:28:39;-5.20;1.00
34201;DHT22;20469;55.638;37.670;2023-03-01T04:31:15;-5.10;1.00
34201;DHT22;20469;55.638;37.670;2023-03-01T04:33:46;-5.20;1.00
34201;DHT22;20469;55.638;37.670;2023-03-01T04:36:16;-5.10;1.00
34201;DHT22;20469;55.638;37.670;2023-03-01T04:38:44;-5.10;1.00
34201;DHT22;20469;55.638;37.670;2023-03-01T04:41:17;-5.10;1.00
34201;DHT22;20469;55.638;37.670;2023-03-01T04:43:45;-5.00;1.00
34201;DHT22;20469;55.638;37.670;2023-03-01T04:46:14;-5.00;1.00
34201;DHT22;20469;55.638;37.670;2023-03-01T04:48:43;-4.90;1.00
34201;DHT22;20469;55.638;37.670;2023-03-01T04:51:11;-4.80;1.00
34201;DHT22;20469;55.638;37.670;2023-03-01T04:53:42;-4.80;1.00
34201;DHT22;20469;55.638;37.670;2023-03-01T04:56:09;-4.50;1.00
34201;DHT22;20469;55.638;37.670;2023-03-01T04:58:37;-3.90;1.00
34201;DHT22;20469;55.638;37.670;2023-03-01T05:01:17;-3.30;1.00
34201;DHT22;20469;55.638;37.670;2023-03-01T05:03:51;-2.90;1.00
34201;DHT22;20469;55.638;37.670;2023-03-01T05:06:19;-3.70;1.00
34201;DHT22;20469;55.638;37.670;2023-03-01T05:08:47;-3.80;1.00
34201;DHT22;20469;55.638;37.670;2023-03-01T05:11:14;-3.20;1.00
34201;DHT22;20469;55.638;37.670;2023-03-01T05:13:41;-3.90;1.00
34201;DHT22;20469;55.638;37.670;2023-03-01T05:16:09;-4.20;1.00
34201;DHT22;20469;55.638;37.670;2023-03-01T05:18:39;-3.90;1.00
34201;DHT22;20469;55.638;37.670;2023-03-01T05:21:09;-3.00;1.00
34201;DHT22;20469;55.638;37.670;2023-03-01T05:23:38;-3.70;1.00
34201;DHT22;20469;55.638;37.670;2023-03-01T05:26:06;-3.90;1.00
34201;DHT22;20469;55.638;37.670;2023-03-01T05:28:48;-4.00;1.00
34201;DHT22;20469;55.638;37.670;2023-03-01T05:31:15;-3.60;1.00
34201;DHT22;20469;55.638;37.670;2023-03-01T05:33:42;-3.90;1.00
34201;DHT22;20469;55.638;37.670;2023-03-01T05:36:10;-3.80;1.00
34201;DHT22;20469;55.638;37.670;2023-03-01T05:38:37;-3.70;1.00
34201;DHT22;20469;55.638;37.670;2023-03-01T05:41:04;-4.40;1.00
34201;DHT22;20469;55.638;37.670;2023-03-01T05:43:32;-4.30;1.00
34201;DHT22;20469;55.638;37.670;2023-03-01T05:46:01;-4.10;1.00
34201;DHT22;20469;55.638;37.670;2023-03-01T05:48:28;-4.20;1.00
34201;DHT22;20469;55.638;37.670;2023-03-01T05:50:59;-4.40;1.00
34201;DHT22;20469;55.638;37.670;2023-03-01T05:53:27;-4.10;1.00
34201;DHT22;20469;55.638;37.670;2023-03-01T05:55:54;-4.00;1.00
34201;DHT22;20469;55.638;37.670;2023-03-01T06:00:49;-4.10;1.00
34201;DHT22;20469;55.638;37.670;2023-03-01T06:03:19;-4.30;1.00
34201;DHT22;20469;55.638;37.670;2023-03-01T06:05:46;-4.10;1.00
34201;DHT22;20469;55.638;37.670;2023-03-01T06:08:14;-3.90;1.00
34201;DHT22;20469;55.638;37.670;2023-03-01T06:10:41;-3.90;1.00
34201;DHT22;20469;55.638;37.670;2023-03-01T06:13:08;-4.10;1.00
34201;DHT22;20469;55.638;37.670;2023-03-01T06:15:35;-4.30;1.00
34201;DHT22;20469;55.638;37.670;2023-03-01T06:18:02;-4.10;1.00
34201;DHT22;20469;55.638;37.670;2023-03-01T06:20:29;-4.30;1.00
34201;DHT22;20469;55.638;37.670;2023-03-01T06:22:57;-3.90;1.00
34201;DHT22;20469;55.638;37.670;2023-03-01T06:25:26;-4.10;1.00
34201;DHT22;20469;55.638;37.670;2023-03-01T06:27:53;-3.90;1.00
34201;DHT22;20469;55.638;37.670;2023-03-01T06:30:22;-3.80;1.00
34201;DHT22;20469;55.638;37.670;2023-03-01T06:32:50;-3.60;1.00
34201;DHT22;20469;55.638;37.670;2023-03-01T06:35:18;-3.50;1.00
34201;DHT22;20469;55.638;37.670;2023-03-01T06:37:47;-3.40;1.00
34201;DHT22;20469;55.638;37.670;2023-03-01T06:40:15;-3.60;1.00
34201;DHT22;20469;55.638;37.670;2023-03-01T06:42:48;-3.70;1.00
34201;DHT22;20469;55.638;37.670;2023-03-01T06:45:18;-3.90;1.00
34201;DHT22;20469;55.638;37.670;2023-03-01T06:47:46;-3.40;1.00
34201;DHT22;20469;55.638;37.670;2023-03-01T06:50:14;-3.30;1.00
34201;DHT22;20469;55.638;37.670;2023-03-01T06:52:41;-3.10;1.00
34201;DHT22;20469;55.638;37.670;2023-03-01T06:55:12;-3.30;1.00
34201;DHT22;20469;55.638;37.670;2023-03-01T06:57:40;-3.20;1.00
34201;DHT22;20469;55.638;37.670;2023-03-01T07:00:08;-3.00;1.00
34201;DHT22;20469;55.638;37.670;2023-03-01T07:02:35;-2.90;1.00
34201;DHT22;20469;55.638;37.670;2023-03-01T07:05:03;-2.90;1.00
34201;DHT22;20469;55.638;37.670;2023-03-01T07:07:30;-2.90;1.00
34201;DHT22;20469;55.638;37.670;2023-03-01T07:09:57;-2.90;1.00
34201;DHT22;20469;55.638;37.670;2023-03-01T07:12:25;-3.00;1.00
34201;DHT22;20469;55.638;37.670;2023-03-01T07:14:52;-2.90;1.00
34201;DHT22;20469;55.638;37.670;2023-03-01T07:17:19;-2.00;1.00
34201;DHT22;20469;55.638;37.670;2023-03-01T07:19:46;-3.00;1.00
34201;DHT22;20469;55.638;37.670;2023-03-01T07:22:13;-2.70;1.00
34201;DHT22;20469;55.638;37.670;2023-03-01T07:24:41;-2.30;1.00
34201;DHT22;20469;55.638;37.670;2023-03-01T07:27:09;-2.50;1.00
34201;DHT22;20469;55.638;37.670;2023-03-01T07:29:37;-2.80;1.00
34201;DHT22;20469;55.638;37.670;2023-03-01T07:32:05;-2.70;1.00
34201;DHT22;20469;55.638;37.670;2023-03-01T07:34:32;-2.10;1.00
34201;DHT22;20469;55.638;37.670;2023-03-01T07:37:00;-2.60;1.00
34201;DHT22;20469;55.638;37.670;2023-03-01T07:39:27;-2.70;1.00
34201;DHT22;20469;55.638;37.670;2023-03-01T07:41:54;-2.50;1.00
34201;DHT22;20469;55.638;37.670;2023-03-01T07:44:21;-2.70;1.00
34201;DHT22;20469;55.638;37.670;2023-03-01T07:46:49;-2.80;1.00
34201;DHT22;20469;55.638;37.670;2023-03-01T07:49:16;-2.90;1.00
34201;DHT22;20469;55.638;37.670;2023-03-01T07:51:43;-2.90;1.00
34201;DHT22;20469;55.638;37.670;2023-03-01T07:54:10;-2.80;1.00
34201;DHT22;20469;55.638;37.670;2023-03-01T07:56:38;-2.50;1.00
34201;DHT22;20469;55.638;37.670;2023-03-01T07:59:05;-2.70;1.00
34201;DHT22;20469;55.638;37.670;2023-03-01T08:01:35;-2.60;1.00
34201;DHT22;20469;55.638;37.670;2023-03-01T08:04:02;-2.50;1.00
34201;DHT22;20469;55.638;37.670;2023-03-01T08:06:35;-2.60;1.00
34201;DHT22;20469;55.638;37.670;2023-03-01T08:09:02;-1.00;1.00
34201;DHT22;20469;55.638;37.670;2023-03-01T08:11:29;2.10;1.00
34201;DHT22;20469;55.638;37.670;2023-03-01T08:13:57;2.90;1.00
34201;DHT22;20469;55.638;37.670;2023-03-01T08:16:24;2.20;1.00
34201;DHT22;20469;55.638;37.670;2023-03-01T08:18:51;3.80;1.00
34201;DHT22;20469;55.638;37.670;2023-03-01T08:21:19;4.00;1.00
34201;DHT22;20469;55.638;37.670;2023-03-01T08:23:46;4.20;1.00
34201;DHT22;20469;55.638;37.670;2023-03-01T08:26:16;3.80;1.00
34201;DHT22;20469;55.638;37.670;2023-03-01T08:28:44;1.30;1.00
34201;DHT22;20469;55.638;37.670;2023-03-01T08:31:21;-0.60;1.00
34201;DHT22;20469;55.638;37.670;2023-03-01T08:33:50;-1.70;1.00
34201;DHT22;20469;55.638;37.670;2023-03-01T08:36:25;-1.80;1.00
34201;DHT22;20469;55.638;37.670;2023-03-01T08:38:53;-2.00;1.00
34201;DHT22;20469;55.638;37.670;2023-03-01T08:41:20;-1.50;1.00
34201;DHT22;20469;55.638;37.670;2023-03-01T08:43:47;-2.50;1.00
34201;DHT22;20469;55.638;37.670;2023-03-01T08:46:14;-2.50;1.00
34201;DHT22;20469;55.638;37.670;2023-03-01T08:48:42;-2.20;1.00
34201;DHT22;20469;55.638;37.670;2023-03-01T08:53:40;-1.90;1.00
34201;DHT22;20469;55.638;37.670;2023-03-01T08:56:08;-1.70;1.00
34201;DHT22;20469;55.638;37.670;2023-03-01T08:58:35;-1.60;1.00
34201;DHT22;20469;55.638;37.670;2023-03-01T09:01:10;-1.50;1.00
34201;DHT22;20469;55.638;37.670;2023-03-01T09:03:38;-1.70;1.00
34201;DHT22;20469;55.638;37.670;2023-03-01T09:06:07;-1.40;1.00
34201;DHT22;20469;55.638;37.670;2023-03-01T09:08:35;-1.40;1.00
34201;DHT22;20469;55.638;37.670;2023-03-01T09:11:04;1.00;1.00
34201;DHT22;20469;55.638;37.670;2023-03-01T09:13:57;3.20;1.00
34201;DHT22;20469;55.638;37.670;2023-03-01T09:16:24;1.60;1.00
34201;DHT22;20469;55.638;37.670;2023-03-01T09:18:53;0.60;1.00
34201;DHT22;20469;55.638;37.670;2023-03-01T09:21:22;0.70;1.00
34201;DHT22;20469;55.638;37.670;2023-03-01T09:24:06;2.60;1.00
34201;DHT22;20469;55.638;37.670;2023-03-01T09:26:33;1.60;1.00
34201;DHT22;20469;55.638;37.670;2023-03-01T09:29:01;1.60;1.00
34201;DHT22;20469;55.638;37.670;2023-03-01T09:31:28;1.00;1.00
34201;DHT22;20469;55.638;37.670;2023-03-01T09:33:55;1.80;1.00
34201;DHT22;20469;55.638;37.670;2023-03-01T09:36:24;0.90;1.00
34201;DHT22;20469;55.638;37.670;2023-03-01T09:38:55;-0.40;1.00
34201;DHT22;20469;55.638;37.670;2023-03-01T09:41:54;-0.30;1.00
34201;DHT22;20469;55.638;37.670;2023-03-01T09:44:37;-0.50;1.00
34201;DHT22;20469;55.638;37.670;2023-03-01T09:47:16;-0.90;1.00
34201;DHT22;20469;55.638;37.670;2023-03-01T09:49:49;-0.80;1.00
34201;DHT22;20469;55.638;37.670;2023-03-01T09:52:34;-0.50;1.00
34201;DHT22;20469;55.638;37.670;2023-03-01T09:55:08;-0.40;1.00
34201;DHT22;20469;55.638;37.670;2023-03-01T09:57:57;-0.40;1.00
34201;DHT22;20469;55.638;37.670;2023-03-01T10:00:46;-0.50;1.00
34201;DHT22;20469;55.638;37.670;2023-03-01T10:03:43;-1.30;1.00
34201;DHT22;20469;55.638;37.670;2023-03-01T10:06:23;-0.90;1.00
34201;DHT22;20469;55.638;37.670;2023-03-01T10:09:10;-0.50;1.00
34201;DHT22;20469;55.638;37.670;2023-03-01T10:11:43;-0.60;1.00
34201;DHT22;20469;55.638;37.670;2023-03-01T10:17:30;0.40;1.00
34201;DHT22;20469;55.638;37.670;2023-03-01T10:22:43;0.20;1.00
34201;DHT22;20469;55.638;37.670;2023-03-01T10:25:15;1.00;1.00
34201;DHT22;20469;55.638;37.670;2023-03-01T10:27:54;0.90;1.00
34201;DHT22;20469;55.638;37.670;2023-03-01T10:30:36;0.70;1.00
34201;DHT22;20469;55.638;37.670;2023-03-01T10:33:25;0.20;1.00
34201;DHT22;20469;55.638;37.670;2023-03-01T10:35:54;-0.30;1.00
34201;DHT22;20469;55.638;37.670;2023-03-01T10:38:22;0.50;1.00
34201;DHT22;20469;55.638;37.670;2023-03-01T10:40:56;0.60;1.00
34201;DHT22;20469;55.638;37.670;2023-03-01T10:46:32;1.60;1.00
34201;DHT22;20469;55.638;37.670;2023-03-01T10:51:41;6.20;1.00
34201;DHT22;20469;55.638;37.670;2023-03-01T10:54:30;3.60;1.00
34201;DHT22;20469;55.638;37.670;2023-03-01T10:57:01;1.00;1.00
34201;DHT22;20469;55.638;37.670;2023-03-01T10:59:35;2.30;1.00
34201;DHT22;20469;55.638;37.670;2023-03-01T11:10:30;0.40;1.00
34201;DHT22;20469;55.638;37.670;2023-03-01T11:13:16;-0.20;1.00
34201;DHT22;20469;55.638;37.670;2023-03-01T11:16:02;0.30;1.00
34201;DHT22;20469;55.638;37.670;2023-03-01T11:18:31;1.80;1.00
34201;DHT22;20469;55.638;37.670;2023-03-01T11:21:15;-0.30;1.00
34201;DHT22;20469;55.638;37.670;2023-03-01T11:23:46;0.10;1.00
34201;DHT22;20469;55.638;37.670;2023-03-01T11:26:15;-0.60;1.00
34201;DHT22;20469;55.638;37.670;2023-03-01T11:28:50;1.60;1.00
34201;DHT22;20469;55.638;37.670;2023-03-01T11:31:19;2.00;1.00
34201;DHT22;20469;55.638;37.670;2023-03-01T11:34:05;6.00;1.00
34201;DHT22;20469;55.638;37.670;2023-03-01T11:36:53;10.60;1.00
34201;DHT22;20469;55.638;37.670;2023-03-01T11:45:12;9.20;1.00
34201;DHT22;20469;55.638;37.670;2023-03-01T11:47:58;11.80;1.00
34201;DHT22;20469;55.638;37.670;2023-03-01T12:04:03;5.50;1.00
34201;DHT22;20469;55.638;37.670;2023-03-01T12:12:07;2.60;1.00
34201;DHT22;20469;55.638;37.670;2023-03-01T12:28:45;2.70;1.00
34201;DHT22;20469;55.638;37.670;2023-03-01T12:32:20;2.00;1.00
34201;DHT22;20469;55.638;37.670;2023-03-01T12:40:30;1.90;1.00
34201;DHT22;20469;55.638;37.670;2023-03-01T12:46:00;1.60;1.00
34201;DHT22;20469;55.638;37.670;2023-03-01T12:51:54;6.80;1.00
34201;DHT22;20469;55.638;37.670;2023-03-01T12:54:33;5.20;1.00
34201;DHT22;20469;55.638;37.670;2023-03-01T12:57:20;5.70;1.00
34201;DHT22;20469;55.638;37.670;2023-03-01T13:00:14;8.40;1.00
34201;DHT22;20469;55.638;37.670;2023-03-01T13:03:25;3.60;1.00
34201;DHT22;20469;55.638;37.670;2023-03-01T13:06:10;1.90;1.00
34201;DHT22;20469;55.638;37.670;2023-03-01T13:08:57;2.80;1.00
34201;DHT22;20469;55.638;37.670;2023-03-01T13:11:27;1.50;1.00
34201;DHT22;20469;55.638;37.670;2023-03-01T13:16:49;0.50;1.00
34201;DHT22;20469;55.638;37.670;2023-03-01T13:19:23;0.00;1.00
34201;DHT22;20469;55.638;37.670;2023-03-01T13:21:51;-0.30;1.00
34201;DHT22;20469;55.638;37.670;2023-03-01T13:27:22;0.10;1.00
34201;DHT22;20469;55.638;37.670;2023-03-01T13:29:58;-0.10;1.00
34201;DHT22;20469;55.638;37.670;2023-03-01T13:32:35;0.20;1.00
34201;DHT22;20469;55.638;37.670;2023-03-01T13:37:43;0.00;1.00
34201;DHT22;20469;55.638;37.670;2023-03-01T13:42:52;-0.20;1.00
34201;DHT22;20469;55.638;37.670;2023-03-01T13:45:42;-0.40;1.00
34201;DHT22;20469;55.638;37.670;2023-03-01T13:48:23;-0.70;1.00
34201;DHT22;20469;55.638;37.670;2023-03-01T13:50:55;-0.80;1.00
34201;DHT22;20469;55.638;37.670;2023-03-01T13:53:27;-0.70;1.00
34201;DHT22;20469;55.638;37.670;2023-03-01T13:56:18;-0.50;1.00
34201;DHT22;20469;55.638;37.670;2023-03-01T13:58:54;-0.80;1.00
34201;DHT22;20469;55.638;37.670;2023-03-01T14:01:31;-1.00;1.00
34201;DHT22;20469;55.638;37.670;2023-03-01T14:04:01;-0.50;1.00
34201;DHT22;20469;55.638;37.670;2023-03-01T14:06:32;-0.80;1.00
34201;DHT22;20469;55.638;37.670;2023-03-01T14:09:05;-0.60;1.00
34201;DHT22;20469;55.638;37.670;2023-03-01T14:14:48;-0.30;1.00
34201;DHT22;20469;55.638;37.670;2023-03-01T14:17:36;-0.90;1.00
34201;DHT22;20469;55.638;37.670;2023-03-01T14:20:43;-1.10;1.00
34201;DHT22;20469;55.638;37.670;2023-03-01T14:23:21;-1.30;1.00
34201;DHT22;20469;55.638;37.670;2023-03-01T14:25:57;-1.20;1.00
34201;DHT22;20469;55.638;37.670;2023-03-01T14:28:27;-0.90;1.00
34201;DHT22;20469;55.638;37.670;2023-03-01T14:30:58;-1.00;1.00
34201;DHT22;20469;55.638;37.670;2023-03-01T14:33:30;-1.00;1.00
34201;DHT22;20469;55.638;37.670;2023-03-01T14:36:08;-1.00;1.00
34201;DHT22;20469;55.638;37.670;2023-03-01T14:38:46;-0.70;1.00
34201;DHT22;20469;55.638;37.670;2023-03-01T14:41:20;-0.80;1.00
34201;DHT22;20469;55.638;37.670;2023-03-01T14:43:55;-0.90;1.00
34201;DHT22;20469;55.638;37.670;2023-03-01T14:51:40;-1.30;1.00
34201;DHT22;20469;55.638;37.670;2023-03-01T14:56:59;-1.50;1.00
34201;DHT22;20469;55.638;37.670;2023-03-01T14:59:28;-1.40;1.00
34201;DHT22;20469;55.638;37.670;2023-03-01T15:01:57;-1.30;1.00
34201;DHT22;20469;55.638;37.670;2023-03-01T15:04:26;-1.50;1.00
34201;DHT22;20469;55.638;37.670;2023-03-01T15:06:55;-1.50;1.00
34201;DHT22;20469;55.638;37.670;2023-03-01T15:09:34;-1.00;1.00
34201;DHT22;20469;55.638;37.670;2023-03-01T15:14:57;-1.20;1.00
34201;DHT22;20469;55.638;37.670;2023-03-01T15:17:38;-1.10;1.00
34201;DHT22;20469;55.638;37.670;2023-03-01T15:20:15;-1.10;1.00
34201;DHT22;20469;55.638;37.670;2023-03-01T15:22:45;-1.40;1.00
34201;DHT22;20469;55.638;37.670;2023-03-01T15:25:18;-1.10;1.00
34201;DHT22;20469;55.638;37.670;2023-03-01T15:27:48;-1.50;1.00
34201;DHT22;20469;55.638;37.670;2023-03-01T15:30:22;-1.30;1.00
34201;DHT22;20469;55.638;37.670;2023-03-01T15:33:16;-1.40;1.00
34201;DHT22;20469;55.638;37.670;2023-03-01T15:35:49;-1.20;1.00
34201;DHT22;20469;55.638;37.670;2023-03-01T15:38:34;-1.50;1.00
34201;DHT22;20469;55.638;37.670;2023-03-01T15:41:04;-1.60;1.00
34201;DHT22;20469;55.638;37.670;2023-03-01T15:43:50;-1.70;1.00
34201;DHT22;20469;55.638;37.670;2023-03-01T15:46:22;-1.50;1.00
34201;DHT22;20469;55.638;37.670;2023-03-01T15:48:58;-1.30;1.00
34201;DHT22;20469;55.638;37.670;2023-03-01T15:51:35;-1.30;1.00
34201;DHT22;20469;55.638;37.670;2023-03-01T15:54:14;-1.50;1.00
34201;DHT22;20469;55.638;37.670;2023-03-01T15:56:43;-1.20;1.00
34201;DHT22;20469;55.638;37.670;2023-03-01T15:59:12;-1.10;1.00
34201;DHT22;20469;55.638;37.670;2023-03-01T16:01:45;-1.20;1.00
34201;DHT22;20469;55.638;37.670;2023-03-01T16:08:13;-1.40;1.00
34201;DHT22;20469;55.638;37.670;2023-03-01T16:10:41;-1.50;1.00
34201;DHT22;20469;55.638;37.670;2023-03-01T16:13:13;-1.30;1.00
34201;DHT22;20469;55.638;37.670;2023-03-01T16:15:40;-1.20;1.00
34201;DHT22;20469;55.638;37.670;2023-03-01T16:18:08;-1.50;1.00
34201;DHT22;20469;55.638;37.670;2023-03-01T16:20:39;-1.70;1.00
34201;DHT22;20469;55.638;37.670;2023-03-01T16:23:08;-1.60;1.00
34201;DHT22;20469;55.638;37.670;2023-03-01T16:25:35;-1.70;1.00
34201;DHT22;20469;55.638;37.670;2023-03-01T16:28:03;-1.60;1.00
34201;DHT22;20469;55.638;37.670;2023-03-01T16:30:38;-1.30;1.00
34201;DHT22;20469;55.638;37.670;2023-03-01T16:33:06;-1.40;1.00
34201;DHT22;20469;55.638;37.670;2023-03-01T16:35:55;-1.50;1.00
34201;DHT22;20469;55.638;37.670;2023-03-01T16:38:22;-1.60;1.00
34201;DHT22;20469;55.638;37.670;2023-03-01T16:40:51;-1.70;1.00
34201;DHT22;20469;55.638;37.670;2023-03-01T16:43:18;-1.50;1.00
34201;DHT22;20469;55.638;37.670;2023-03-01T16:45:46;-1.50;1.00
34201;DHT22;20469;55.638;37.670;2023-03-01T16:48:13;-1.40;1.00
34201;DHT22;20469;55.638;37.670;2023-03-01T16:50:41;-1.50;1.00
34201;DHT22;20469;55.638;37.670;2023-03-01T16:53:08;-1.50;1.00
34201;DHT22;20469;55.638;37.670;2023-03-01T16:55:35;-1.70;1.00
34201;DHT22;20469;55.638;37.670;2023-03-01T16:58:03;-1.30;1.00
34201;DHT22;20469;55.638;37.670;2023-03-01T17:00:31;-1.20;1.00
34201;DHT22;20469;55.638;37.670;2023-03-01T17:02:58;-1.40;1.00
34201;DHT22;20469;55.638;37.670;2023-03-01T17:05:25;-3.40;1.00
34201;DHT22;20469;55.638;37.670;2023-03-01T17:07:52;-1.30;1.00
34201;DHT22;20469;55.638;37.670;2023-03-01T17:10:22;-1.40;1.00
34201;DHT22;20469;55.638;37.670;2023-03-01T17:12:49;-1.50;1.00
34201;DHT22;20469;55.638;37.670;2023-03-01T17:15:18;-1.60;1.00
34201;DHT22;20469;55.638;37.670;2023-03-01T17:17:45;-1.60;1.00
34201;DHT22;20469;55.638;37.670;2023-03-01T17:20:18;-1.40;1.00
34201;DHT22;20469;55.638;37.670;2023-03-01T17:22:45;-1.30;1.00
34201;DHT22;20469;55.638;37.670;2023-03-01T17:25:13;-1.20;1.00
34201;DHT22;20469;55.638;37.670;2023-03-01T17:27:41;-1.50;1.00
34201;DHT22;20469;55.638;37.670;2023-03-01T17:30:09;-1.40;1.00
34201;DHT22;20469;55.638;37.670;2023-03-01T17:32:37;-1.70;1.00
34201;DHT22;20469;55.638;37.670;2023-03-01T17:35:05;-1.60;1.00
34201;DHT22;20469;55.638;37.670;2023-03-01T17:37:33;-1.50;1.00
34201;DHT22;20469;55.638;37.670;2023-03-01T17:40:03;-1.60;1.00
34201;DHT22;20469;55.638;37.670;2023-03-01T17:47:26;-1.30;1.00
34201;DHT22;20469;55.638;37.670;2023-03-01T17:49:53;-1.40;1.00
34201;DHT22;20469;55.638;37.670;2023-03-01T17:52:20;-1.60;1.00
34201;DHT22;20469;55.638;37.670;2023-03-01T17:54:49;-3.00;1.00
34201;DHT22;20469;55.638;37.670;2023-03-01T17:57:16;-1.50;1.00
34201;DHT22;20469;55.638;37.670;2023-03-01T17:59:44;-1.70;1.00
34201;DHT22;20469;55.638;37.670;2023-03-01T18:02:12;-1.70;1.00
34201;DHT22;20469;55.638;37.670;2023-03-01T18:04:39;-1.70;1.00
34201;DHT22;20469;55.638;37.670;2023-03-01T18:09:34;-1.60;1.00
34201;DHT22;20469;55.638;37.670;2023-03-01T18:12:01;-1.50;1.00
34201;DHT22;20469;55.638;37.670;2023-03-01T18:14:28;-1.40;1.00
34201;DHT22;20469;55.638;37.670;2023-03-01T18:17:00;-1.50;1.00
34201;DHT22;20469;55.638;37.670;2023-03-01T18:19:32;-1.60;1.00